Time;durP1;ratioP1;P1;durP2;ratioP2;P2;SDS_P1;SDS_P2;PMS_P1;PMS_P2;Temp;Humidity;BMP_temperature;BMP_pressure;BME280_temperature;BME280_humidity;BME280_pressure;Samples;Min_cycle;Max_cycle;Signal;HPM_P1;HPM_P2
2023/08/31 00:01:53;;;;;;;9.80;8.80;;;;;;;;;;4964216;28;20424;-83
2023/08/31 00:04:19;;;;;;;9.90;7.93;;;;;;;;;;4966198;28;20172;-85
2023/08/31 00:06:45;;;;;;;9.47;7.27;;;;;;;;;;4955965;28;20426;-85
2023/08/31 00:09:11;;;;;;;7.73;6.87;;;;;;;;;;4964587;28;20173;-82
2023/08/31 00:11:37;;;;;;;8.20;7.30;;;;;;;;;;4966070;28;20422;-83
2023/08/31 00:14:04;;;;;;;7.90;7.10;;;;;;;;;;4964898;28;20415;-83
2023/08/31 00:16:30;;;;;;;6.37;5.77;;;;;;;;;;4964356;28;20616;-82
2023/08/31 00:18:59;;;;;;;7.00;6.30;;;;;;;;;;4965852;28;20815;-83
2023/08/31 00:21:25;;;;;;;6.30;5.03;;;;;;;;;;4964897;28;20489;-84
2023/08/31 00:23:51;;;;;;;7.70;5.73;;;;;;;;;;4964070;28;20412;-83
2023/08/31 00:26:17;;;;;;;7.67;5.83;;;;;;;;;;4948601;28;21012;-85
2023/08/31 00:28:45;;;;;;;6.40;5.80;;;;;;;;;;4964625;28;20254;-86
2023/08/31 00:31:11;;;;;;;7.10;6.13;;;;;;;;;;4963995;28;20173;-84
2023/08/31 00:33:40;;;;;;;5.77;4.77;;;;;;;;;;4965283;28;20932;-82
2023/08/31 00:36:06;;;;;;;8.20;6.23;;;;;;;;;;4961214;28;20469;-82
2023/08/31 00:38:32;;;;;;;6.90;5.60;;;;;;;;;;4962635;28;20452;-83
2023/08/31 00:40:58;;;;;;;6.90;5.37;;;;;;;;;;4963981;28;20436;-86
2023/08/31 00:43:23;;;;;;;8.10;5.77;;;;;;;;;;4974141;28;20553;-84
2023/08/31 00:45:51;;;;;;;6.70;5.93;;;;;;;;;;4974627;28;20439;-82
2023/08/31 00:48:17;;;;;;;8.53;6.57;;;;;;;;;;4974352;28;20415;-83
2023/08/31 00:50:47;;;;;;;10.60;7.67;;;;;;;;;;4974431;28;20434;-82
2023/08/31 00:53:13;;;;;;;9.87;8.87;;;;;;;;;;4973385;28;20810;-86
2023/08/31 00:55:42;;;;;;;8.77;7.30;;;;;;;;;;4974530;28;20516;-83
2023/08/31 00:58:09;;;;;;;8.93;8.03;;;;;;;;;;4974396;28;20423;-85
2023/08/31 01:00:59;;;;;;;10.87;7.83;;;;;;;;;;4974342;28;20478;-83
2023/08/31 01:03:25;;;;;;;9.13;8.20;;;;;;;;;;4973917;28;20765;-82
2023/08/31 01:06:10;;;;;;;11.50;8.27;;;;;;;;;;4956832;28;20436;-85
2023/08/31 01:08:44;;;;;;;9.40;8.50;;;;;;;;;;4974211;28;20452;-83
2023/08/31 01:11:22;;;;;;;11.13;9.20;;;;;;;;;;4974253;28;20422;-84
2023/08/31 01:14:03;;;;;;;9.20;7.73;;;;;;;;;;4974105;28;20420;-85
2023/08/31 01:16:29;;;;;;;11.27;8.80;;;;;;;;;;4973745;28;20440;-83
2023/08/31 01:18:56;;;;;;;15.43;8.60;;;;;;;;;;4973981;28;20543;-85
2023/08/31 01:21:25;;;;;;;10.77;8.80;;;;;;;;;;4973977;28;20428;-87
2023/08/31 01:23:53;;;;;;;10.10;9.00;;;;;;;;;;4973911;28;20786;-84
2023/08/31 01:26:19;;;;;;;9.73;8.73;;;;;;;;;;4973930;28;20416;-83
2023/08/31 01:28:45;;;;;;;11.10;8.70;;;;;;;;;;4973920;28;20412;-86
2023/08/31 01:31:11;;;;;;;10.80;8.07;;;;;;;;;;4977370;28;20419;-85
2023/08/31 01:33:37;;;;;;;9.80;8.60;;;;;;;;;;4975801;28;20423;-84
2023/08/31 01:36:05;;;;;;;9.50;8.60;;;;;;;;;;4973494;28;20471;-81
2023/08/31 01:38:33;;;;;;;9.23;7.37;;;;;;;;;;4973666;28;20411;-84
2023/08/31 01:41:03;;;;;;;9.47;8.30;;;;;;;;;;4973045;28;20443;-82
2023/08/31 01:43:29;;;;;;;8.20;6.87;;;;;;;;;;4973601;28;20419;-83
2023/08/31 01:45:56;;;;;;;9.63;7.20;;;;;;;;;;4973509;28;20427;-84
2023/08/31 01:48:22;;;;;;;9.90;7.23;;;;;;;;;;4973047;28;20412;-84
2023/08/31 01:50:47;;;;;;;8.70;7.17;;;;;;;;;;4973398;28;20430;-82
2023/08/31 01:53:13;;;;;;;8.53;7.50;;;;;;;;;;4973285;28;20200;-83
2023/08/31 01:55:39;;;;;;;10.60;8.10;;;;;;;;;;4971339;28;20426;-81
2023/08/31 01:58:05;;;;;;;9.27;7.57;;;;;;;;;;4973410;28;20422;-86
2023/08/31 02:00:34;;;;;;;9.80;7.83;;;;;;;;;;4973208;28;20212;-85
2023/08/31 02:03:00;;;;;;;9.67;7.90;;;;;;;;;;4973022;28;20676;-82
2023/08/31 02:05:26;;;;;;;9.57;7.00;;;;;;;;;;4973354;28;20423;-81
2023/08/31 02:07:52;;;;;;;11.20;9.17;;;;;;;;;;4973237;28;20414;-86
2023/08/31 02:10:18;;;;;;;7.90;6.90;;;;;;;;;;4973356;28;20172;-82
2023/08/31 02:12:44;;;;;;;12.10;7.30;;;;;;;;;;4973189;28;20985;-80
2023/08/31 02:15:10;;;;;;;9.90;7.13;;;;;;;;;;4973233;28;20971;-80
2023/08/31 02:17:36;;;;;;;9.40;7.63;;;;;;;;;;4972774;28;20250;-82
2023/08/31 02:20:06;;;;;;;9.13;8.20;;;;;;;;;;4972923;28;20578;-83
2023/08/31 02:22:34;;;;;;;8.20;7.40;;;;;;;;;;4971786;28;20412;-82
2023/08/31 02:25:01;;;;;;;9.80;6.60;;;;;;;;;;4973183;28;20420;-85
2023/08/31 02:27:26;;;;;;;14.03;7.03;;;;;;;;;;4972941;28;20419;-82
2023/08/31 02:29:52;;;;;;;9.03;6.40;;;;;;;;;;4971765;28;20424;-80
2023/08/31 02:32:18;;;;;;;8.50;7.30;;;;;;;;;;4972720;28;20913;-82
2023/08/31 02:34:44;;;;;;;7.23;5.83;;;;;;;;;;4973066;28;21019;-82
2023/08/31 02:37:10;;;;;;;9.50;6.50;;;;;;;;;;4972720;28;20540;-81
2023/08/31 02:39:36;;;;;;;9.40;7.30;;;;;;;;;;4972890;28;20215;-82
2023/08/31 02:42:02;;;;;;;8.67;6.47;;;;;;;;;;4971595;28;20432;-81
2023/08/31 02:44:28;;;;;;;10.43;7.07;;;;;;;;;;4972974;28;20420;-83
2023/08/31 02:46:54;;;;;;;8.90;6.27;;;;;;;;;;4972446;28;20866;-80
2023/08/31 02:49:20;;;;;;;10.10;7.10;;;;;;;;;;4972883;28;20420;-83
2023/08/31 02:51:46;;;;;;;10.57;6.27;;;;;;;;;;4972728;28;20208;-84
2023/08/31 02:54:12;;;;;;;9.77;7.00;;;;;;;;;;4971626;28;20482;-81
2023/08/31 02:56:44;;;;;;;9.93;6.23;;;;;;;;;;4972301;28;20908;-80
2023/08/31 02:59:10;;;;;;;8.30;6.67;;;;;;;;;;4972545;28;20853;-83
2023/08/31 03:01:36;;;;;;;7.40;6.03;;;;;;;;;;4972340;28;20422;-80
2023/08/31 03:04:02;;;;;;;6.70;4.83;;;;;;;;;;4972674;28;20461;-84
2023/08/31 03:06:28;;;;;;;8.37;5.90;;;;;;;;;;4972751;28;20256;-82
2023/08/31 03:08:54;;;;;;;7.33;5.70;;;;;;;;;;4975099;28;20446;-80
2023/08/31 03:11:19;;;;;;;7.87;5.47;;;;;;;;;;4976355;28;20172;-80
2023/08/31 03:13:45;;;;;;;9.20;6.07;;;;;;;;;;4976376;28;20177;-82
2023/08/31 03:16:11;;;;;;;8.00;4.10;;;;;;;;;;4975778;28;20183;-79
2023/08/31 03:18:37;;;;;;;9.73;5.47;;;;;;;;;;4976100;28;20766;-81
2023/08/31 03:21:03;;;;;;;7.00;5.20;;;;;;;;;;4974975;28;20433;-80
2023/08/31 03:23:30;;;;;;;6.00;4.63;;;;;;;;;;4976268;28;20180;-83
2023/08/31 03:25:56;;;;;;;7.67;5.37;;;;;;;;;;4974691;28;20429;-81
2023/08/31 03:28:22;;;;;;;7.60;4.97;;;;;;;;;;4975966;28;20938;-85
2023/08/31 03:30:54;;;;;;;8.87;6.50;;;;;;;;;;4976756;28;20185;-84
2023/08/31 03:33:20;;;;;;;5.87;5.27;;;;;;;;;;4975649;28;20426;-84
2023/08/31 03:35:47;;;;;;;8.27;6.60;;;;;;;;;;4976825;28;20421;-82
2023/08/31 03:38:13;;;;;;;6.83;4.90;;;;;;;;;;4977184;28;20787;-85
2023/08/31 03:40:38;;;;;;;6.60;4.63;;;;;;;;;;4976954;28;20484;-85
2023/08/31 03:43:04;;;;;;;8.57;6.33;;;;;;;;;;4977045;28;20183;-80
2023/08/31 03:45:30;;;;;;;7.77;5.93;;;;;;;;;;4976939;28;20455;-85
2023/08/31 03:47:56;;;;;;;7.90;5.70;;;;;;;;;;4976564;28;20419;-84
2023/08/31 03:50:22;;;;;;;5.80;5.20;;;;;;;;;;4976972;28;20422;-82
2023/08/31 03:52:48;;;;;;;6.90;5.00;;;;;;;;;;4976789;28;20410;-83
2023/08/31 03:55:14;;;;;;;5.10;4.60;;;;;;;;;;4976729;28;20599;-82
2023/08/31 03:57:40;;;;;;;8.07;4.40;;;;;;;;;;4976817;28;20412;-83
2023/08/31 04:00:08;;;;;;;9.70;4.83;;;;;;;;;;4976579;28;20475;-83
2023/08/31 04:02:35;;;;;;;8.03;4.83;;;;;;;;;;4976380;28;20163;-82
2023/08/31 04:05:01;;;;;;;5.40;4.87;;;;;;;;;;4976622;28;20414;-80
2023/08/31 04:07:26;;;;;;;5.10;4.57;;;;;;;;;;4976517;28;20417;-83
2023/08/31 04:09:52;;;;;;;7.07;4.30;;;;;;;;;;4976594;28;20527;-83
2023/08/31 04:12:18;;;;;;;4.37;3.93;;;;;;;;;;4976479;28;20405;-81
2023/08/31 04:14:44;;;;;;;8.63;4.33;;;;;;;;;;4976442;28;20774;-83
2023/08/31 04:17:10;;;;;;;6.10;3.60;;;;;;;;;;4976074;28;20186;-83
2023/08/31 04:19:37;;;;;;;5.60;3.90;;;;;;;;;;4975274;28;20551;-83
2023/08/31 04:22:04;;;;;;;6.33;4.00;;;;;;;;;;4976313;28;20171;-83
2023/08/31 04:24:30;;;;;;;5.77;4.70;;;;;;;;;;4975065;28;20774;-82
2023/08/31 04:26:56;;;;;;;6.60;3.53;;;;;;;;;;4976169;28;20422;-83
2023/08/31 04:29:22;;;;;;;5.57;3.63;;;;;;;;;;4976175;28;20402;-83
2023/08/31 04:31:48;;;;;;;8.80;4.47;;;;;;;;;;4975787;28;20827;-82
2023/08/31 04:34:14;;;;;;;7.87;4.37;;;;;;;;;;4975931;28;20418;-80
2023/08/31 04:36:40;;;;;;;5.17;3.50;;;;;;;;;;4975813;28;20816;-84
2023/08/31 04:39:07;;;;;;;6.47;3.40;;;;;;;;;;4975867;28;20462;-80
2023/08/31 04:41:33;;;;;;;8.53;4.50;;;;;;;;;;4975962;28;20173;-81
2023/08/31 04:43:59;;;;;;;8.33;3.93;;;;;;;;;;4975936;28;20490;-83
2023/08/31 04:46:25;;;;;;;9.30;4.30;;;;;;;;;;4975436;28;20181;-84
2023/08/31 04:48:51;;;;;;;6.00;4.03;;;;;;;;;;4975792;28;20178;-85
2023/08/31 04:51:29;;;;;;;7.43;3.50;;;;;;;;;;4975737;28;20433;-81
2023/08/31 04:53:55;;;;;;;6.40;4.63;;;;;;;;;;4975667;28;20429;-83
2023/08/31 04:56:21;;;;;;;6.07;3.67;;;;;;;;;;4975635;28;20420;-83
2023/08/31 04:58:47;;;;;;;7.67;5.30;;;;;;;;;;4975531;28;20410;-83
2023/08/31 05:01:14;;;;;;;6.50;3.93;;;;;;;;;;4975211;28;20432;-85
2023/08/31 05:03:40;;;;;;;8.53;4.50;;;;;;;;;;4966816;28;20524;-81
2023/08/31 05:06:06;;;;;;;5.60;3.77;;;;;;;;;;4965895;28;20454;-81
2023/08/31 05:08:31;;;;;;;5.00;3.47;;;;;;;;;;4966162;28;20477;-84
2023/08/31 05:10:57;;;;;;;6.57;3.43;;;;;;;;;;4972014;28;20640;-83
2023/08/31 05:13:23;;;;;;;5.80;3.53;;;;;;;;;;4964488;28;20414;-83
2023/08/31 05:15:49;;;;;;;5.53;3.63;;;;;;;;;;4966071;28;20488;-82
2023/08/31 05:18:15;;;;;;;9.33;3.20;;;;;;;;;;4975076;28;20198;-81
2023/08/31 05:20:45;;;;;;;4.40;2.67;;;;;;;;;;4975271;28;20211;-82
2023/08/31 05:23:11;;;;;;;9.43;4.00;;;;;;;;;;4975482;28;20420;-83
2023/08/31 05:25:42;;;;;;;8.10;4.63;;;;;;;;;;4975336;28;20423;-81
2023/08/31 05:28:07;;;;;;;9.53;3.70;;;;;;;;;;4975478;28;20439;-82
2023/08/31 05:30:34;;;;;;;5.40;3.63;;;;;;;;;;4973741;28;20473;-81
2023/08/31 05:33:00;;;;;;;5.90;3.50;;;;;;;;;;4974570;28;20226;-84
2023/08/31 05:35:26;;;;;;;6.03;4.30;;;;;;;;;;4973117;28;20514;-81
2023/08/31 05:37:52;;;;;;;6.57;3.90;;;;;;;;;;4974773;28;20946;-83
2023/08/31 05:40:18;;;;;;;5.23;3.30;;;;;;;;;;4974820;28;20503;-83
2023/08/31 05:42:44;;;;;;;6.20;3.37;;;;;;;;;;4974804;28;20404;-82
2023/08/31 05:45:10;;;;;;;4.70;2.63;;;;;;;;;;4974661;28;20785;-83
2023/08/31 05:47:36;;;;;;;4.37;2.13;;;;;;;;;;4974379;28;20491;-83
2023/08/31 05:50:03;;;;;;;3.80;2.60;;;;;;;;;;4974736;28;20968;-83
2023/08/31 05:52:28;;;;;;;6.17;2.07;;;;;;;;;;4974696;28;20419;-80
2023/08/31 05:54:54;;;;;;;3.53;1.33;;;;;;;;;;4974597;28;20448;-84
2023/08/31 05:57:21;;;;;;;7.30;1.90;;;;;;;;;;4974551;28;20408;-80
2023/08/31 05:59:47;;;;;;;6.77;1.73;;;;;;;;;;4974427;28;20525;-81
2023/08/31 06:02:14;;;;;;;4.63;1.63;;;;;;;;;;4974183;28;20913;-86
2023/08/31 06:04:39;;;;;;;4.67;1.90;;;;;;;;;;4974570;28;20419;-83
2023/08/31 06:07:05;;;;;;;3.17;1.90;;;;;;;;;;4974511;28;20508;-83
2023/08/31 06:09:32;;;;;;;3.87;1.53;;;;;;;;;;4974399;28;20175;-84
2023/08/31 06:11:57;;;;;;;5.13;1.20;;;;;;;;;;4974444;28;20262;-82
2023/08/31 06:14:23;;;;;;;5.17;1.40;;;;;;;;;;4974426;28;20979;-86
2023/08/31 06:16:49;;;;;;;3.87;1.20;;;;;;;;;;4974031;28;20746;-84
2023/08/31 06:19:15;;;;;;;2.73;1.20;;;;;;;;;;4974266;28;20469;-83
2023/08/31 06:21:41;;;;;;;3.20;1.40;;;;;;;;;;4974290;28;20176;-81
2023/08/31 06:24:12;;;;;;;5.10;1.90;;;;;;;;;;4974249;28;20180;-79
2023/08/31 06:26:38;;;;;;;3.60;1.37;;;;;;;;;;4974283;28;20424;-85
2023/08/31 06:29:05;;;;;;;5.53;1.63;;;;;;;;;;4974148;28;20414;-81
2023/08/31 06:31:31;;;;;;;6.40;1.63;;;;;;;;;;4973857;28;20410;-79
2023/08/31 06:33:57;;;;;;;6.20;1.93;;;;;;;;;;4974105;28;20408;-80
2023/08/31 06:36:24;;;;;;;5.10;0.83;;;;;;;;;;4973775;28;20473;-80
2023/08/31 06:38:49;;;;;;;4.23;1.70;;;;;;;;;;4974165;28;20228;-83
2023/08/31 06:41:18;;;;;;;4.10;1.43;;;;;;;;;;4973743;28;20439;-79
2023/08/31 06:43:45;;;;;;;3.47;1.43;;;;;;;;;;4977577;28;20174;-81
2023/08/31 06:46:11;;;;;;;3.73;1.80;;;;;;;;;;4977725;28;20413;-81
2023/08/31 06:48:37;;;;;;;5.37;1.43;;;;;;;;;;4977959;28;20462;-79
2023/08/31 06:51:03;;;;;;;5.20;1.70;;;;;;;;;;4977910;28;20500;-81
2023/08/31 06:53:31;;;;;;;3.17;1.43;;;;;;;;;;4977900;28;20534;-82
2023/08/31 06:55:57;;;;;;;2.10;1.07;;;;;;;;;;4960538;28;20457;-82
2023/08/31 06:58:23;;;;;;;2.63;1.00;;;;;;;;;;4977722;28;20458;-81
2023/08/31 07:00:48;;;;;;;2.57;1.47;;;;;;;;;;4977862;28;20919;-77
2023/08/31 07:03:14;;;;;;;1.70;0.93;;;;;;;;;;4978434;28;20171;-77
2023/08/31 07:05:46;;;;;;;2.70;1.30;;;;;;;;;;4977463;28;20251;-78
2023/08/31 07:08:12;;;;;;;4.50;1.67;;;;;;;;;;4977665;28;20195;-77
2023/08/31 07:10:41;;;;;;;2.77;1.20;;;;;;;;;;4977587;28;20704;-76
2023/08/31 07:13:16;;;;;;;2.43;1.03;;;;;;;;;;4969793;28;20508;-76
2023/08/31 07:15:51;;;;;;;3.90;1.43;;;;;;;;;;4956609;28;20941;-77
2023/08/31 07:18:17;;;;;;;2.70;1.33;;;;;;;;;;4958251;28;20767;-77
2023/08/31 07:20:46;;;;;;;5.20;1.60;;;;;;;;;;4956851;28;20482;-77
2023/08/31 07:23:12;;;;;;;2.30;1.03;;;;;;;;;;4958181;28;20169;-83
2023/08/31 07:25:37;;;;;;;2.17;0.83;;;;;;;;;;4958304;28;20904;-84
2023/08/31 07:28:03;;;;;;;2.47;0.83;;;;;;;;;;4958208;29;20272;-85
2023/08/31 07:30:30;;;;;;;3.83;0.93;;;;;;;;;;4957678;28;20267;-78
2023/08/31 07:32:56;;;;;;;1.80;0.73;;;;;;;;;;4957924;28;20952;-79
2023/08/31 07:35:22;;;;;;;3.10;0.80;;;;;;;;;;4957840;28;20409;-78
2023/08/31 07:37:47;;;;;;;1.87;0.83;;;;;;;;;;4957709;28;20488;-77
2023/08/31 07:40:13;;;;;;;5.60;1.03;;;;;;;;;;4957801;28;20559;-83
2023/08/31 07:42:39;;;;;;;3.80;1.00;;;;;;;;;;4957764;28;20181;-84
2023/08/31 07:45:06;;;;;;;1.63;0.50;;;;;;;;;;4957769;29;20420;-82
2023/08/31 07:47:32;;;;;;;2.63;0.60;;;;;;;;;;4957382;28;20200;-78
2023/08/31 07:49:58;;;;;;;5.60;0.90;;;;;;;;;;4957588;28;20416;-79
2023/08/31 07:52:24;;;;;;;2.93;0.63;;;;;;;;;;4957494;28;20177;-81
2023/08/31 07:54:49;;;;;;;3.17;1.37;;;;;;;;;;4956300;28;20177;-81
2023/08/31 07:57:15;;;;;;;3.43;0.80;;;;;;;;;;4957544;28;20181;-81
2023/08/31 07:59:41;;;;;;;3.37;1.13;;;;;;;;;;4957387;28;20204;-80
2023/08/31 08:02:07;;;;;;;3.83;1.10;;;;;;;;;;4957081;28;20177;-82
2023/08/31 08:04:33;;;;;;;4.67;0.80;;;;;;;;;;4957322;28;20533;-82
2023/08/31 08:06:59;;;;;;;1.93;0.80;;;;;;;;;;4957361;28;20177;-82
2023/08/31 08:09:25;;;;;;;2.87;0.60;;;;;;;;;;4957293;28;20499;-82
2023/08/31 08:11:51;;;;;;;2.13;0.70;;;;;;;;;;4957260;28;20180;-84
2023/08/31 08:14:17;;;;;;;2.17;0.50;;;;;;;;;;4957197;28;20185;-83
2023/08/31 08:16:43;;;;;;;4.43;1.00;;;;;;;;;;4956794;28;20177;-82
2023/08/31 08:19:09;;;;;;;1.53;0.63;;;;;;;;;;4955748;28;20208;-81
2023/08/31 08:21:35;;;;;;;3.10;1.20;;;;;;;;;;4957124;28;20448;-80
2023/08/31 08:24:01;;;;;;;2.70;0.63;;;;;;;;;;4957022;28;20421;-83
2023/08/31 08:26:27;;;;;;;2.63;0.57;;;;;;;;;;4956998;28;20435;-84
2023/08/31 08:28:53;;;;;;;3.60;0.90;;;;;;;;;;4956919;28;20483;-84
2023/08/31 08:31:19;;;;;;;1.90;0.70;;;;;;;;;;4961291;28;20416;-82
2023/08/31 08:33:44;;;;;;;2.47;0.93;;;;;;;;;;4976195;28;20191;-84
2023/08/31 08:36:10;;;;;;;2.90;1.07;;;;;;;;;;4975785;28;20216;-83
2023/08/31 08:38:36;;;;;;;2.60;0.77;;;;;;;;;;4976221;28;20183;-82
2023/08/31 08:41:05;;;;;;;1.50;0.87;;;;;;;;;;4976010;28;21066;-81
2023/08/31 08:43:32;;;;;;;2.60;1.00;;;;;;;;;;4976319;28;20983;-82
2023/08/31 08:46:01;;;;;;;2.33;0.80;;;;;;;;;;4975603;28;20420;-83
2023/08/31 08:48:27;;;;;;;2.43;0.80;;;;;;;;;;4975837;28;20510;-82
2023/08/31 08:50:53;;;;;;;3.50;1.23;;;;;;;;;;4975857;28;20856;-83
2023/08/31 08:53:19;;;;;;;4.10;1.27;;;;;;;;;;4975766;28;20419;-82
2023/08/31 08:55:45;;;;;;;2.93;1.20;;;;;;;;;;4975745;28;20469;-84
2023/08/31 08:58:11;;;;;;;1.53;0.70;;;;;;;;;;4975475;28;20187;-85
2023/08/31 09:00:37;;;;;;;3.17;1.20;;;;;;;;;;4957844;28;20703;-81
2023/08/31 09:03:03;;;;;;;2.23;0.70;;;;;;;;;;4975598;28;20175;-80
2023/08/31 09:05:32;;;;;;;3.77;0.90;;;;;;;;;;4975138;28;20473;-83
2023/08/31 09:08:02;;;;;;;2.60;0.57;;;;;;;;;;4975571;28;20399;-85
2023/08/31 09:10:35;;;;;;;6.00;1.03;;;;;;;;;;4975488;28;20404;-86
2023/08/31 09:13:01;;;;;;;2.87;1.00;;;;;;;;;;4975365;28;20427;-84
2023/08/31 09:15:36;;;;;;;5.07;1.20;;;;;;;;;;4975023;28;20401;-82
2023/08/31 09:18:02;;;;;;;4.97;2.50;;;;;;;;;;4975316;28;20394;-79
2023/08/31 09:20:28;;;;;;;4.13;1.30;;;;;;;;;;4975150;28;20978;-85
2023/08/31 09:22:56;;;;;;;3.57;1.40;;;;;;;;;;4957860;28;20415;-82
2023/08/31 09:25:22;;;;;;;3.67;1.23;;;;;;;;;;4975090;28;20933;-83
2023/08/31 09:27:49;;;;;;;4.57;1.60;;;;;;;;;;4975132;28;20437;-82
2023/08/31 09:30:15;;;;;;;4.60;1.50;;;;;;;;;;4974773;28;20411;-83
2023/08/31 09:32:43;;;;;;;4.40;1.50;;;;;;;;;;4975089;28;20467;-84
2023/08/31 09:35:09;;;;;;;4.00;1.63;;;;;;;;;;4974912;28;20417;-83
2023/08/31 09:37:35;;;;;;;1.80;1.43;;;;;;;;;;4974770;28;20464;-81
2023/08/31 09:40:04;;;;;;;5.30;1.60;;;;;;;;;;4974933;28;20491;-80
2023/08/31 09:42:37;;;;;;;2.20;1.60;;;;;;;;;;4957448;28;20828;-82
2023/08/31 09:45:03;;;;;;;2.90;1.77;;;;;;;;;;4971536;28;20777;-82
2023/08/31 09:47:29;;;;;;;3.03;1.33;;;;;;;;;;4963545;28;20416;-84
2023/08/31 09:49:56;;;;;;;2.67;1.30;;;;;;;;;;4964922;28;20420;-85
2023/08/31 09:52:22;;;;;;;4.73;1.80;;;;;;;;;;4963116;28;20424;-84
2023/08/31 09:54:49;;;;;;;4.13;1.90;;;;;;;;;;4961194;28;20432;-86
2023/08/31 09:57:17;;;;;;;3.53;1.60;;;;;;;;;;4962437;28;20420;-84
2023/08/31 09:59:43;;;;;;;5.13;1.33;;;;;;;;;;4971392;28;20606;-85
2023/08/31 10:02:10;;;;;;;4.13;1.43;;;;;;;;;;4968784;28;20792;-86
2023/08/31 10:04:37;;;;;;;2.90;0.90;;;;;;;;;;4974180;28;21014;-82
2023/08/31 10:07:03;;;;;;;3.27;1.13;;;;;;;;;;4963569;28;20427;-87
2023/08/31 10:09:30;;;;;;;4.20;1.43;;;;;;;;;;4964365;28;20870;-80
2023/08/31 10:11:56;;;;;;;3.23;1.83;;;;;;;;;;4964776;28;20429;-84
2023/08/31 10:14:22;;;;;;;4.73;1.00;;;;;;;;;;4964276;28;20414;-81
2023/08/31 10:16:48;;;;;;;2.60;0.70;;;;;;;;;;4959385;28;20745;-81
2023/08/31 10:19:14;;;;;;;3.40;0.80;;;;;;;;;;4957090;28;20570;-80
2023/08/31 10:21:41;;;;;;;2.23;0.70;;;;;;;;;;4954087;28;20491;-83
2023/08/31 10:24:07;;;;;;;3.50;0.90;;;;;;;;;;4954107;28;20202;-84
2023/08/31 10:26:33;;;;;;;3.50;0.70;;;;;;;;;;4953864;28;20447;-84
2023/08/31 10:29:00;;;;;;;2.33;1.10;;;;;;;;;;4953928;28;20474;-85
2023/08/31 10:31:29;;;;;;;3.47;1.20;;;;;;;;;;4953067;28;20426;-84
2023/08/31 10:34:09;;;;;;;2.67;1.13;;;;;;;;;;4954426;29;20434;-85
2023/08/31 10:36:37;;;;;;;3.30;1.13;;;;;;;;;;4953804;28;20449;-82
2023/08/31 10:39:13;;;;;;;2.07;0.53;;;;;;;;;;4954307;28;20449;-85
2023/08/31 10:41:39;;;;;;;1.80;0.60;;;;;;;;;;4954669;29;20748;-84
2023/08/31 10:44:21;;;;;;;3.07;0.93;;;;;;;;;;4954732;28;20428;-91
2023/08/31 10:46:47;;;;;;;4.47;0.87;;;;;;;;;;4954688;29;20421;-90
2023/08/31 10:49:14;;;;;;;2.53;1.03;;;;;;;;;;4954951;28;20881;-89
2023/08/31 10:51:41;;;;;;;2.10;0.50;;;;;;;;;;4954748;28;20452;-85
2023/08/31 10:54:09;;;;;;;2.27;0.83;;;;;;;;;;4955016;29;20427;-89
2023/08/31 10:56:39;;;;;;;4.43;1.67;;;;;;;;;;4954324;29;21342;-85
2023/08/31 10:59:05;;;;;;;2.70;1.30;;;;;;;;;;4954217;28;20977;-85
2023/08/31 11:01:49;;;;;;;2.10;1.03;;;;;;;;;;4954428;28;20507;-85
2023/08/31 11:04:15;;;;;;;0.87;0.60;;;;;;;;;;4954980;28;20504;-90
2023/08/31 11:06:41;;;;;;;2.70;0.70;;;;;;;;;;4954754;29;20973;-90
2023/08/31 11:09:08;;;;;;;1.03;0.70;;;;;;;;;;4954962;29;20189;-88
2023/08/31 11:11:49;;;;;;;1.60;0.60;;;;;;;;;;4955235;28;20180;-91
2023/08/31 11:14:16;;;;;;;1.90;0.70;;;;;;;;;;4938318;29;20432;-90
2023/08/31 11:16:42;;;;;;;1.43;0.70;;;;;;;;;;4954968;28;20747;-89
2023/08/31 11:19:08;;;;;;;1.23;0.50;;;;;;;;;;4954942;28;20432;-87
2023/08/31 11:21:34;;;;;;;2.00;0.90;;;;;;;;;;4955193;28;20428;-86
2023/08/31 11:24:00;;;;;;;1.43;1.03;;;;;;;;;;4955179;28;20177;-89
2023/08/31 11:26:30;;;;;;;2.00;0.53;;;;;;;;;;4955560;28;20185;-91
2023/08/31 11:28:56;;;;;;;2.10;0.80;;;;;;;;;;4958485;28;20232;-90
2023/08/31 11:31:25;;;;;;;1.87;0.73;;;;;;;;;;4958190;29;20511;-91
2023/08/31 11:33:51;;;;;;;2.30;0.60;;;;;;;;;;4958044;28;20444;-85
2023/08/31 11:36:17;;;;;;;1.90;0.87;;;;;;;;;;4957575;28;20507;-85
2023/08/31 11:38:44;;;;;;;2.20;0.63;;;;;;;;;;4958019;29;20177;-81
2023/08/31 11:41:10;;;;;;;3.87;0.67;;;;;;;;;;4957850;28;21016;-84
2023/08/31 11:43:37;;;;;;;1.73;0.70;;;;;;;;;;4957637;29;20460;-80
2023/08/31 11:46:04;;;;;;;2.93;0.70;;;;;;;;;;4958286;28;20173;-84
2023/08/31 11:48:30;;;;;;;1.20;0.30;;;;;;;;;;4957949;28;20416;-87
2023/08/31 11:50:56;;;;;;;1.03;0.53;;;;;;;;;;4958125;28;20479;-90
2023/08/31 11:53:22;;;;;;;2.40;0.50;;;;;;;;;;4958142;28;20405;-89
2023/08/31 11:55:52;;;;;;;2.07;0.70;;;;;;;;;;4941217;29;20940;-82
2023/08/31 11:58:18;;;;;;;3.17;0.60;;;;;;;;;;4970417;28;20427;-93
2023/08/31 12:00:46;;;;;;;1.83;0.60;;;;;;;;;;4974362;28;20472;-84
2023/08/31 12:03:12;;;;;;;2.43;0.53;;;;;;;;;;4957630;29;20169;-84
2023/08/31 12:05:48;;;;;;;1.20;0.30;;;;;;;;;;4957912;28;20413;-84
2023/08/31 12:08:14;;;;;;;1.30;0.30;;;;;;;;;;4957077;28;20200;-87
2023/08/31 12:10:43;;;;;;;2.13;0.70;;;;;;;;;;4956888;28;20444;-88
2023/08/31 12:13:10;;;;;;;1.17;0.50;;;;;;;;;;4957109;28;20440;-90
2023/08/31 12:15:36;;;;;;;2.10;0.50;;;;;;;;;;4956551;29;20517;-88
2023/08/31 12:18:11;;;;;;;1.20;0.50;;;;;;;;;;4956841;28;20471;-88
2023/08/31 12:20:47;;;;;;;0.80;0.30;;;;;;;;;;4956600;28;20475;-88
2023/08/31 12:23:15;;;;;;;2.90;0.80;;;;;;;;;;4955476;28;20511;-84
2023/08/31 12:25:45;;;;;;;0.77;0.40;;;;;;;;;;4956689;29;20755;-86
2023/08/31 12:28:11;;;;;;;1.20;0.70;;;;;;;;;;4956587;29;20417;-84
2023/08/31 12:30:37;;;;;;;1.80;0.57;;;;;;;;;;4963096;28;20421;-86
2023/08/31 12:33:06;;;;;;;2.00;0.43;;;;;;;;;;4959892;28;20548;-82
2023/08/31 12:35:32;;;;;;;1.50;0.60;;;;;;;;;;4956265;28;20721;-80
2023/08/31 12:37:58;;;;;;;2.40;0.50;;;;;;;;;;4955137;28;20472;-88
2023/08/31 12:40:25;;;;;;;2.40;0.60;;;;;;;;;;4956157;28;20220;-91
2023/08/31 12:42:51;;;;;;;1.53;0.23;;;;;;;;;;4963869;28;20180;-91
2023/08/31 12:45:16;;;;;;;1.87;0.40;;;;;;;;;;4972861;28;20434;-93
2023/08/31 12:47:42;;;;;;;1.03;0.47;;;;;;;;;;4973099;28;20543;-80
2023/08/31 12:50:08;;;;;;;1.50;0.20;;;;;;;;;;4967348;28;20169;-88
2023/08/31 12:52:34;;;;;;;2.57;0.27;;;;;;;;;;4968178;28;20192;-88
2023/08/31 12:55:00;;;;;;;1.40;0.20;;;;;;;;;;4970583;28;20422;-86
2023/08/31 12:57:26;;;;;;;1.00;0.37;;;;;;;;;;4973095;28;20184;-90
2023/08/31 12:59:52;;;;;;;0.80;0.20;;;;;;;;;;4962183;28;20580;-91
2023/08/31 13:02:19;;;;;;;1.13;0.30;;;;;;;;;;4959104;28;20421;-89
2023/08/31 13:04:45;;;;;;;1.53;0.43;;;;;;;;;;4961000;28;20267;-83
2023/08/31 13:07:11;;;;;;;3.80;0.37;;;;;;;;;;4967438;28;20521;-91
2023/08/31 13:09:37;;;;;;;1.87;0.30;;;;;;;;;;4974975;28;20444;-88
2023/08/31 13:12:03;;;;;;;2.23;0.30;;;;;;;;;;4958112;28;20176;-91
2023/08/31 13:14:29;;;;;;;1.43;0.30;;;;;;;;;;4975543;28;20644;-88
2023/08/31 13:16:59;;;;;;;1.27;0.20;;;;;;;;;;4973896;28;20424;-91
2023/08/31 13:19:25;;;;;;;1.23;0.20;;;;;;;;;;4958197;28;20211;-84
2023/08/31 13:21:50;;;;;;;1.33;0.20;;;;;;;;;;4973350;28;20435;-88
2023/08/31 13:24:16;;;;;;;2.47;0.23;;;;;;;;;;4965655;28;20539;-88
2023/08/31 13:26:47;;;;;;;1.50;0.20;;;;;;;;;;4964333;28;20424;-84
2023/08/31 13:29:13;;;;;;;2.00;0.20;;;;;;;;;;4965507;28;20172;-85
2023/08/31 13:31:39;;;;;;;1.90;0.20;;;;;;;;;;4974163;28;20905;-88
2023/08/31 13:34:07;;;;;;;1.50;0.20;;;;;;;;;;4974966;28;20480;-79
2023/08/31 13:36:33;;;;;;;1.80;0.27;;;;;;;;;;4973523;28;20474;-83
2023/08/31 13:38:59;;;;;;;0.53;0.20;;;;;;;;;;4974792;28;20411;-84
2023/08/31 13:41:25;;;;;;;0.70;0.30;;;;;;;;;;4973618;28;20686;-83
2023/08/31 13:43:52;;;;;;;1.07;0.30;;;;;;;;;;4974404;28;20174;-85
2023/08/31 13:46:17;;;;;;;0.80;0.20;;;;;;;;;;4974251;28;20174;-84
2023/08/31 13:48:44;;;;;;;1.00;0.20;;;;;;;;;;4972546;28;20432;-83
2023/08/31 13:51:09;;;;;;;1.40;0.20;;;;;;;;;;4974603;28;20187;-81
2023/08/31 13:53:36;;;;;;;0.50;0.40;;;;;;;;;;4974235;28;20444;-86
2023/08/31 13:56:01;;;;;;;0.90;0.20;;;;;;;;;;4974536;28;20250;-83
2023/08/31 13:58:27;;;;;;;1.97;0.20;;;;;;;;;;4974372;28;20819;-81
2023/08/31 14:00:56;;;;;;;1.17;0.43;;;;;;;;;;4974022;28;20220;-86
2023/08/31 14:03:23;;;;;;;1.67;0.20;;;;;;;;;;4974503;28;20289;-84
2023/08/31 14:05:49;;;;;;;1.23;0.30;;;;;;;;;;4974421;28;20520;-84
2023/08/31 14:08:15;;;;;;;0.60;0.20;;;;;;;;;;4974511;28;20410;-83
2023/08/31 14:10:41;;;;;;;2.00;0.40;;;;;;;;;;4974172;28;20426;-82
2023/08/31 14:13:07;;;;;;;1.67;0.30;;;;;;;;;;4956914;28;20426;-80
2023/08/31 14:15:33;;;;;;;3.97;0.33;;;;;;;;;;4973874;28;20242;-80
2023/08/31 14:17:59;;;;;;;1.60;0.20;;;;;;;;;;4974137;28;20509;-83
2023/08/31 14:20:25;;;;;;;1.80;0.63;;;;;;;;;;4974100;28;20580;-81
2023/08/31 14:22:51;;;;;;;1.63;0.20;;;;;;;;;;4974098;28;20419;-81
2023/08/31 14:25:16;;;;;;;1.10;0.23;;;;;;;;;;4974067;28;20253;-81
2023/08/31 14:27:43;;;;;;;1.17;0.30;;;;;;;;;;4974161;28;20535;-82
2023/08/31 14:30:09;;;;;;;2.60;0.23;;;;;;;;;;4973741;28;20305;-82
2023/08/31 14:32:35;;;;;;;1.97;0.20;;;;;;;;;;4973925;28;20956;-83
2023/08/31 14:35:01;;;;;;;1.43;0.20;;;;;;;;;;4973568;28;20439;-81
2023/08/31 14:37:27;;;;;;;3.17;0.20;;;;;;;;;;4973349;28;20235;-81
2023/08/31 14:39:53;;;;;;;1.87;0.30;;;;;;;;;;4974174;28;20537;-84
2023/08/31 14:42:20;;;;;;;0.83;0.20;;;;;;;;;;4956997;28;20771;-85